sensor_id;sensor_type;location;lat;lon;timestamp;pressure;altitude;pressure_sealevel;temperature;humidity
54308;BME280;40208;39.778;2.710;2023-07-20T00:00:11;101041.25;;;28.67;100.00
54308;BME280;40208;39.778;2.710;2023-07-20T00:03:18;101057.09;;;28.71;100.00
54308;BME280;40208;39.778;2.710;2023-07-20T00:06:03;101064.78;;;28.68;100.00
54308;BME280;40208;39.778;2.710;2023-07-20T00:08:48;101000.03;;;28.22;100.00
54308;BME280;40208;39.778;2.710;2023-07-20T00:11:37;101058.06;;;28.56;100.00
54308;BME280;40208;39.778;2.710;2023-07-20T00:14:23;101061.16;;;28.52;100.00
54308;BME280;40208;39.778;2.710;2023-07-20T00:17:07;101062.06;;;28.37;100.00
54308;BME280;40208;39.778;2.710;2023-07-20T00:19:52;101003.22;;;28.03;100.00
54308;BME280;40208;39.778;2.710;2023-07-20T00:22:37;101044.19;;;28.26;100.00
54308;BME280;40208;39.778;2.710;2023-07-20T00:25:22;101012.94;;;28.05;100.00
54308;BME280;40208;39.778;2.710;2023-07-20T00:28:07;100992.19;;;27.88;100.00
54308;BME280;40208;39.778;2.710;2023-07-20T00:30:51;100979.44;;;27.88;100.00
54308;BME280;40208;39.778;2.710;2023-07-20T00:33:36;101073.81;;;28.45;100.00
54308;BME280;40208;39.778;2.710;2023-07-20T00:36:20;101080.44;;;28.51;100.00
54308;BME280;40208;39.778;2.710;2023-07-20T00:39:06;101030.09;;;28.14;100.00
54308;BME280;40208;39.778;2.710;2023-07-20T00:41:50;101056.31;;;28.23;100.00
54308;BME280;40208;39.778;2.710;2023-07-20T00:44:35;101023.84;;;28.05;100.00
54308;BME280;40208;39.778;2.710;2023-07-20T00:47:20;100929.66;;;27.39;100.00
54308;BME280;40208;39.778;2.710;2023-07-20T00:50:06;101073.75;;;28.22;100.00
54308;BME280;40208;39.778;2.710;2023-07-20T00:52:50;101059.09;;;28.15;100.00
54308;BME280;40208;39.778;2.710;2023-07-20T00:55:35;101061.06;;;28.29;100.00
54308;BME280;40208;39.778;2.710;2023-07-20T00:58:20;101001.38;;;27.95;100.00
54308;BME280;40208;39.778;2.710;2023-07-20T01:01:05;101055.97;;;28.26;100.00
54308;BME280;40208;39.778;2.710;2023-07-20T01:03:50;101001.25;;;27.88;100.00
54308;BME280;40208;39.778;2.710;2023-07-20T01:06:58;101041.81;;;28.23;100.00
54308;BME280;40208;39.778;2.710;2023-07-20T01:09:55;100868.38;;;27.18;100.00
54308;BME280;40208;39.778;2.710;2023-07-20T01:12:47;101034.56;;;28.07;100.00
54308;BME280;40208;39.778;2.710;2023-07-20T01:15:35;101004.47;;;27.92;100.00
54308;BME280;40208;39.778;2.710;2023-07-20T01:18:20;100951.22;;;27.57;100.00
54308;BME280;40208;39.778;2.710;2023-07-20T01:21:09;101027.09;;;28.01;100.00
54308;BME280;40208;39.778;2.710;2023-07-20T01:27:22;101007.00;;;27.94;100.00
54308;BME280;40208;39.778;2.710;2023-07-20T01:33:18;100862.75;;;27.12;100.00
54308;BME280;40208;39.778;2.710;2023-07-20T01:36:04;100942.03;;;27.58;100.00
54308;BME280;40208;39.778;2.710;2023-07-20T01:38:49;100988.28;;;27.90;100.00
54308;BME280;40208;39.778;2.710;2023-07-20T01:41:35;100979.41;;;27.80;100.00
54308;BME280;40208;39.778;2.710;2023-07-20T01:44:20;100977.97;;;27.61;100.00
54308;BME280;40208;39.778;2.710;2023-07-20T01:47:04;100926.94;;;27.31;100.00
54308;BME280;40208;39.778;2.710;2023-07-20T01:49:49;100886.13;;;26.98;100.00
54308;BME280;40208;39.778;2.710;2023-07-20T01:52:34;100982.44;;;27.46;100.00
54308;BME280;40208;39.778;2.710;2023-07-20T01:55:19;100857.78;;;26.68;100.00
54308;BME280;40208;39.778;2.710;2023-07-20T01:58:04;100853.53;;;26.65;100.00
54308;BME280;40208;39.778;2.710;2023-07-20T02:00:50;100995.88;;;27.56;100.00
54308;BME280;40208;39.778;2.710;2023-07-20T02:03:35;100846.19;;;26.74;100.00
54308;BME280;40208;39.778;2.710;2023-07-20T02:06:20;100931.88;;;27.35;100.00
54308;BME280;40208;39.778;2.710;2023-07-20T02:09:05;100887.31;;;27.03;100.00
54308;BME280;40208;39.778;2.710;2023-07-20T02:11:50;100850.63;;;26.75;100.00
54308;BME280;40208;39.778;2.710;2023-07-20T02:14:34;100831.06;;;26.71;100.00
54308;BME280;40208;39.778;2.710;2023-07-20T02:17:19;100975.22;;;27.69;100.00
54308;BME280;40208;39.778;2.710;2023-07-20T02:20:04;100866.53;;;27.02;100.00
54308;BME280;40208;39.778;2.710;2023-07-20T02:22:49;100888.28;;;27.19;100.00
54308;BME280;40208;39.778;2.710;2023-07-20T02:25:34;100919.59;;;27.31;100.00
54308;BME280;40208;39.778;2.710;2023-07-20T02:28:19;100873.34;;;27.06;100.00
54308;BME280;40208;39.778;2.710;2023-07-20T02:31:04;100958.56;;;27.56;100.00
54308;BME280;40208;39.778;2.710;2023-07-20T02:33:49;100963.16;;;27.56;100.00
54308;BME280;40208;39.778;2.710;2023-07-20T02:36:35;100881.88;;;27.03;100.00
54308;BME280;40208;39.778;2.710;2023-07-20T02:39:20;100946.53;;;27.34;100.00
54308;BME280;40208;39.778;2.710;2023-07-20T02:42:05;100828.00;;;26.66;100.00
54308;BME280;40208;39.778;2.710;2023-07-20T02:44:50;100981.25;;;27.40;100.00
54308;BME280;40208;39.778;2.710;2023-07-20T02:47:35;100894.50;;;26.88;100.00
54308;BME280;40208;39.778;2.710;2023-07-20T02:50:20;100864.25;;;26.67;100.00
54308;BME280;40208;39.778;2.710;2023-07-20T02:53:04;100981.28;;;27.24;100.00
54308;BME280;40208;39.778;2.710;2023-07-20T02:55:49;100914.91;;;26.92;100.00
54308;BME280;40208;39.778;2.710;2023-07-20T02:58:34;100976.88;;;27.23;100.00
54308;BME280;40208;39.778;2.710;2023-07-20T03:01:23;100982.50;;;27.21;100.00
54308;BME280;40208;39.778;2.710;2023-07-20T03:04:08;100911.72;;;26.80;100.00
54308;BME280;40208;39.778;2.710;2023-07-20T03:06:54;100955.59;;;27.10;100.00
54308;BME280;40208;39.778;2.710;2023-07-20T03:09:39;100888.56;;;26.76;100.00
54308;BME280;40208;39.778;2.710;2023-07-20T03:12:25;100959.84;;;27.21;100.00
54308;BME280;40208;39.778;2.710;2023-07-20T03:15:10;100904.22;;;26.82;100.00
54308;BME280;40208;39.778;2.710;2023-07-20T03:17:55;100926.50;;;26.94;100.00
54308;BME280;40208;39.778;2.710;2023-07-20T03:20:39;100830.22;;;26.38;100.00
54308;BME280;40208;39.778;2.710;2023-07-20T03:23:24;100906.41;;;26.79;100.00
54308;BME280;40208;39.778;2.710;2023-07-20T03:26:10;100955.78;;;27.00;100.00
54308;BME280;40208;39.778;2.710;2023-07-20T03:28:55;100952.19;;;27.08;100.00
54308;BME280;40208;39.778;2.710;2023-07-20T03:31:40;100960.53;;;27.15;100.00
54308;BME280;40208;39.778;2.710;2023-07-20T03:34:25;100919.16;;;26.95;100.00
54308;BME280;40208;39.778;2.710;2023-07-20T03:37:09;100921.75;;;26.80;100.00
54308;BME280;40208;39.778;2.710;2023-07-20T03:39:54;100958.13;;;27.12;100.00
54308;BME280;40208;39.778;2.710;2023-07-20T03:42:39;100856.41;;;26.63;100.00
54308;BME280;40208;39.778;2.710;2023-07-20T03:45:24;100894.00;;;26.84;100.00
54308;BME280;40208;39.778;2.710;2023-07-20T03:48:09;100908.44;;;26.93;100.00
54308;BME280;40208;39.778;2.710;2023-07-20T03:50:54;100834.13;;;26.60;100.00
54308;BME280;40208;39.778;2.710;2023-07-20T03:53:38;100906.22;;;26.97;100.00
54308;BME280;40208;39.778;2.710;2023-07-20T03:56:23;100937.03;;;27.22;100.00
54308;BME280;40208;39.778;2.710;2023-07-20T03:59:08;100914.72;;;27.02;100.00
54308;BME280;40208;39.778;2.710;2023-07-20T04:01:53;100852.34;;;26.59;100.00
54308;BME280;40208;39.778;2.710;2023-07-20T04:04:38;100864.25;;;26.58;100.00
54308;BME280;40208;39.778;2.710;2023-07-20T04:07:23;100849.59;;;26.51;100.00
54308;BME280;40208;39.778;2.710;2023-07-20T04:10:08;100967.16;;;27.12;100.00
54308;BME280;40208;39.778;2.710;2023-07-20T04:12:53;100963.59;;;27.03;100.00
54308;BME280;40208;39.778;2.710;2023-07-20T04:15:38;100964.28;;;27.05;100.00
54308;BME280;40208;39.778;2.710;2023-07-20T04:18:23;100963.94;;;27.08;100.00
54308;BME280;40208;39.778;2.710;2023-07-20T04:21:08;100962.94;;;27.01;100.00
54308;BME280;40208;39.778;2.710;2023-07-20T04:23:53;100943.91;;;26.77;100.00
54308;BME280;40208;39.778;2.710;2023-07-20T04:26:38;100878.53;;;26.44;100.00
54308;BME280;40208;39.778;2.710;2023-07-20T04:29:22;100968.53;;;27.00;100.00
54308;BME280;40208;39.778;2.710;2023-07-20T04:32:07;100954.09;;;26.83;100.00
54308;BME280;40208;39.778;2.710;2023-07-20T04:34:52;100887.38;;;26.46;100.00
54308;BME280;40208;39.778;2.710;2023-07-20T04:37:37;100933.50;;;26.64;100.00
54308;BME280;40208;39.778;2.710;2023-07-20T04:40:22;100859.16;;;26.22;100.00
54308;BME280;40208;39.778;2.710;2023-07-20T04:43:07;100959.72;;;26.73;100.00
54308;BME280;40208;39.778;2.710;2023-07-20T04:45:52;100966.53;;;26.61;100.00
54308;BME280;40208;39.778;2.710;2023-07-20T04:48:37;100926.03;;;26.58;100.00
54308;BME280;40208;39.778;2.710;2023-07-20T04:51:22;100872.22;;;26.35;100.00
54308;BME280;40208;39.778;2.710;2023-07-20T04:54:07;100828.53;;;26.04;100.00
54308;BME280;40208;39.778;2.710;2023-07-20T04:56:54;100897.09;;;26.57;100.00
54308;BME280;40208;39.778;2.710;2023-07-20T04:59:38;100910.53;;;26.67;100.00
54308;BME280;40208;39.778;2.710;2023-07-20T05:02:23;100970.06;;;27.02;100.00
54308;BME280;40208;39.778;2.710;2023-07-20T05:05:08;100925.66;;;26.69;100.00
54308;BME280;40208;39.778;2.710;2023-07-20T05:07:53;100976.03;;;26.90;100.00
54308;BME280;40208;39.778;2.710;2023-07-20T05:10:39;100902.50;;;26.32;100.00
54308;BME280;40208;39.778;2.710;2023-07-20T05:13:24;100978.94;;;26.80;100.00
54308;BME280;40208;39.778;2.710;2023-07-20T05:16:08;100978.09;;;26.71;100.00
54308;BME280;40208;39.778;2.710;2023-07-20T05:18:53;100850.09;;;25.97;100.00
54308;BME280;40208;39.778;2.710;2023-07-20T05:21:38;100950.31;;;26.51;100.00
54308;BME280;40208;39.778;2.710;2023-07-20T05:24:23;100975.69;;;26.60;100.00
54308;BME280;40208;39.778;2.710;2023-07-20T05:27:07;100968.72;;;26.57;100.00
54308;BME280;40208;39.778;2.710;2023-07-20T05:29:52;100970.25;;;26.60;100.00
54308;BME280;40208;39.778;2.710;2023-07-20T05:32:37;100844.59;;;25.81;100.00
54308;BME280;40208;39.778;2.710;2023-07-20T05:35:23;100913.38;;;26.16;100.00
54308;BME280;40208;39.778;2.710;2023-07-20T05:38:07;100937.34;;;26.29;100.00
54308;BME280;40208;39.778;2.710;2023-07-20T05:40:52;100991.72;;;26.63;100.00
54308;BME280;40208;39.778;2.710;2023-07-20T05:43:37;100858.72;;;25.85;100.00
54308;BME280;40208;39.778;2.710;2023-07-20T05:46:22;101008.22;;;26.70;100.00
54308;BME280;40208;39.778;2.710;2023-07-20T05:49:08;100971.78;;;26.54;100.00
54308;BME280;40208;39.778;2.710;2023-07-20T05:51:54;100930.72;;;26.31;100.00
54308;BME280;40208;39.778;2.710;2023-07-20T05:54:40;100990.50;;;26.65;100.00
54308;BME280;40208;39.778;2.710;2023-07-20T05:57:25;100990.16;;;26.69;100.00
54308;BME280;40208;39.778;2.710;2023-07-20T06:00:11;100976.56;;;26.60;100.00
54308;BME280;40208;39.778;2.710;2023-07-20T06:02:57;100966.69;;;26.59;100.00
54308;BME280;40208;39.778;2.710;2023-07-20T06:05:42;101000.03;;;26.86;100.00
54308;BME280;40208;39.778;2.710;2023-07-20T06:08:28;101023.69;;;27.02;100.00
54308;BME280;40208;39.778;2.710;2023-07-20T06:11:13;101034.09;;;27.06;100.00
54308;BME280;40208;39.778;2.710;2023-07-20T06:13:58;100966.16;;;26.64;100.00
54308;BME280;40208;39.778;2.710;2023-07-20T06:16:43;101034.41;;;27.12;100.00
54308;BME280;40208;39.778;2.710;2023-07-20T06:19:28;101035.94;;;27.14;100.00
54308;BME280;40208;39.778;2.710;2023-07-20T06:22:13;101015.00;;;27.06;100.00
54308;BME280;40208;39.778;2.710;2023-07-20T06:24:58;100942.16;;;26.51;100.00
54308;BME280;40208;39.778;2.710;2023-07-20T06:27:43;100979.81;;;26.89;100.00
54308;BME280;40208;39.778;2.710;2023-07-20T06:30:28;101018.06;;;27.12;100.00
54308;BME280;40208;39.778;2.710;2023-07-20T06:33:13;101015.88;;;27.23;100.00
54308;BME280;40208;39.778;2.710;2023-07-20T06:35:58;101017.25;;;27.27;100.00
54308;BME280;40208;39.778;2.710;2023-07-20T06:38:43;101023.19;;;27.39;100.00
54308;BME280;40208;39.778;2.710;2023-07-20T06:41:28;100958.47;;;27.08;100.00
54308;BME280;40208;39.778;2.710;2023-07-20T06:44:12;101017.53;;;27.49;100.00
54308;BME280;40208;39.778;2.710;2023-07-20T06:46:57;100931.59;;;27.05;100.00
54308;BME280;40208;39.778;2.710;2023-07-20T06:49:42;100995.56;;;27.51;100.00
54308;BME280;40208;39.778;2.710;2023-07-20T06:52:27;100941.94;;;27.35;100.00
54308;BME280;40208;39.778;2.710;2023-07-20T06:55:12;100974.69;;;27.66;100.00
54308;BME280;40208;39.778;2.710;2023-07-20T06:57:57;100983.19;;;27.79;100.00
54308;BME280;40208;39.778;2.710;2023-07-20T07:00:42;100915.16;;;27.38;100.00
54308;BME280;40208;39.778;2.710;2023-07-20T07:03:27;100976.69;;;27.88;100.00
54308;BME280;40208;39.778;2.710;2023-07-20T07:06:11;100861.03;;;27.19;100.00
54308;BME280;40208;39.778;2.710;2023-07-20T07:08:56;101002.03;;;27.97;100.00
54308;BME280;40208;39.778;2.710;2023-07-20T07:11:41;100984.19;;;27.86;100.00
54308;BME280;40208;39.778;2.710;2023-07-20T07:14:26;100902.94;;;27.34;100.00
54308;BME280;40208;39.778;2.710;2023-07-20T07:17:11;101046.47;;;28.14;100.00
54308;BME280;40208;39.778;2.710;2023-07-20T07:19:56;100952.19;;;27.72;100.00
54308;BME280;40208;39.778;2.710;2023-07-20T07:22:41;101016.97;;;28.09;100.00
54308;BME280;40208;39.778;2.710;2023-07-20T07:25:28;101041.00;;;28.14;100.00
54308;BME280;40208;39.778;2.710;2023-07-20T07:28:13;101044.09;;;28.19;100.00
54308;BME280;40208;39.778;2.710;2023-07-20T07:30:58;101010.53;;;28.02;100.00
54308;BME280;40208;39.778;2.710;2023-07-20T07:33:43;100978.91;;;27.93;100.00
54308;BME280;40208;39.778;2.710;2023-07-20T07:36:28;101085.53;;;28.54;100.00
54308;BME280;40208;39.778;2.710;2023-07-20T07:39:13;101036.19;;;28.24;100.00
54308;BME280;40208;39.778;2.710;2023-07-20T07:41:58;101106.31;;;28.63;100.00
54308;BME280;40208;39.778;2.710;2023-07-20T07:44:43;101097.81;;;28.58;100.00
54308;BME280;40208;39.778;2.710;2023-07-20T07:47:28;101095.38;;;28.63;100.00
54308;BME280;40208;39.778;2.710;2023-07-20T07:50:13;101027.25;;;28.39;100.00
54308;BME280;40208;39.778;2.710;2023-07-20T07:52:57;101087.50;;;28.68;100.00
54308;BME280;40208;39.778;2.710;2023-07-20T07:55:42;101111.97;;;28.85;100.00
54308;BME280;40208;39.778;2.710;2023-07-20T07:58:27;101034.06;;;28.43;100.00
54308;BME280;40208;39.778;2.710;2023-07-20T08:01:12;101092.06;;;28.99;100.00
54308;BME280;40208;39.778;2.710;2023-07-20T08:03:56;101091.72;;;29.02;100.00
54308;BME280;40208;39.778;2.710;2023-07-20T08:06:41;101029.25;;;28.76;100.00
54308;BME280;40208;39.778;2.710;2023-07-20T08:09:26;101081.78;;;29.09;100.00
54308;BME280;40208;39.778;2.710;2023-07-20T08:12:11;101049.44;;;28.90;100.00
54308;BME280;40208;39.778;2.710;2023-07-20T08:14:56;101087.75;;;29.28;100.00
54308;BME280;40208;39.778;2.710;2023-07-20T08:17:41;101083.44;;;29.33;100.00
54308;BME280;40208;39.778;2.710;2023-07-20T08:20:28;101069.28;;;29.30;100.00
54308;BME280;40208;39.778;2.710;2023-07-20T08:23:13;101090.16;;;29.46;100.00
54308;BME280;40208;39.778;2.710;2023-07-20T08:25:58;101100.34;;;29.52;100.00
54308;BME280;40208;39.778;2.710;2023-07-20T08:28:44;101120.66;;;29.57;100.00
54308;BME280;40208;39.778;2.710;2023-07-20T08:31:29;100889.78;;;28.08;100.00
54308;BME280;40208;39.778;2.710;2023-07-20T08:34:14;101047.22;;;29.16;100.00
54308;BME280;40208;39.778;2.710;2023-07-20T08:36:59;101046.72;;;29.13;100.00
54308;BME280;40208;39.778;2.710;2023-07-20T08:39:44;101138.06;;;29.79;100.00
54308;BME280;40208;39.778;2.710;2023-07-20T08:42:29;101157.69;;;29.83;100.00
54308;BME280;40208;39.778;2.710;2023-07-20T08:45:16;101033.72;;;29.15;100.00
54308;BME280;40208;39.778;2.710;2023-07-20T08:48:01;101020.78;;;29.09;100.00
54308;BME280;40208;39.778;2.710;2023-07-20T08:50:51;101104.13;;;29.66;100.00
54308;BME280;40208;39.778;2.710;2023-07-20T08:53:37;101114.00;;;29.75;100.00
54308;BME280;40208;39.778;2.710;2023-07-20T08:56:25;101126.16;;;29.87;100.00
54308;BME280;40208;39.778;2.710;2023-07-20T08:59:13;101150.28;;;30.07;100.00
54308;BME280;40208;39.778;2.710;2023-07-20T09:02:00;101142.13;;;29.98;100.00
54308;BME280;40208;39.778;2.710;2023-07-20T09:04:46;101018.28;;;29.37;100.00
54308;BME280;40208;39.778;2.710;2023-07-20T09:07:31;101148.94;;;30.17;100.00
54308;BME280;40208;39.778;2.710;2023-07-20T09:10:17;101050.09;;;29.53;100.00
54308;BME280;40208;39.778;2.710;2023-07-20T09:13:01;101036.88;;;29.42;100.00
54308;BME280;40208;39.778;2.710;2023-07-20T09:15:47;101175.47;;;30.17;100.00
54308;BME280;40208;39.778;2.710;2023-07-20T09:18:32;101084.69;;;29.60;100.00
54308;BME280;40208;39.778;2.710;2023-07-20T09:21:18;101041.03;;;29.52;100.00
54308;BME280;40208;39.778;2.710;2023-07-20T09:24:03;101060.78;;;29.77;100.00
54308;BME280;40208;39.778;2.710;2023-07-20T09:26:51;100967.00;;;29.24;100.00
54308;BME280;40208;39.778;2.710;2023-07-20T09:29:50;101123.66;;;30.30;100.00
54308;BME280;40208;39.778;2.710;2023-07-20T09:32:38;101114.41;;;30.31;100.00
54308;BME280;40208;39.778;2.710;2023-07-20T09:35:23;101122.22;;;30.34;100.00
54308;BME280;40208;39.778;2.710;2023-07-20T09:38:08;101049.72;;;30.00;100.00
54308;BME280;40208;39.778;2.710;2023-07-20T09:40:53;100966.41;;;29.58;100.00
54308;BME280;40208;39.778;2.710;2023-07-20T09:43:38;101004.47;;;29.83;100.00
54308;BME280;40208;39.778;2.710;2023-07-20T09:46:23;101101.63;;;30.38;100.00
54308;BME280;40208;39.778;2.710;2023-07-20T09:49:09;101003.97;;;29.79;100.00
54308;BME280;40208;39.778;2.710;2023-07-20T09:51:54;100973.88;;;29.65;100.00
54308;BME280;40208;39.778;2.710;2023-07-20T09:54:40;101081.22;;;30.41;100.00
54308;BME280;40208;39.778;2.710;2023-07-20T09:57:26;100959.00;;;29.67;100.00
54308;BME280;40208;39.778;2.710;2023-07-20T10:00:10;100946.44;;;29.58;100.00
54308;BME280;40208;39.778;2.710;2023-07-20T10:02:59;101049.72;;;30.30;100.00
54308;BME280;40208;39.778;2.710;2023-07-20T10:05:52;101060.81;;;30.43;100.00
54308;BME280;40208;39.778;2.710;2023-07-20T10:08:41;101043.03;;;30.33;100.00
54308;BME280;40208;39.778;2.710;2023-07-20T10:11:31;101070.53;;;30.46;100.00
54308;BME280;40208;39.778;2.710;2023-07-20T10:14:22;101038.81;;;30.37;100.00
54308;BME280;40208;39.778;2.710;2023-07-20T10:17:07;101075.25;;;30.52;100.00
54308;BME280;40208;39.778;2.710;2023-07-20T10:19:56;100932.00;;;29.79;100.00
54308;BME280;40208;39.778;2.710;2023-07-20T10:22:43;100955.75;;;29.93;100.00
54308;BME280;40208;39.778;2.710;2023-07-20T10:25:30;101015.44;;;30.19;100.00
54308;BME280;40208;39.778;2.710;2023-07-20T10:28:16;101124.69;;;30.80;100.00
54308;BME280;40208;39.778;2.710;2023-07-20T10:31:01;100965.63;;;29.94;100.00
54308;BME280;40208;39.778;2.710;2023-07-20T10:33:46;101125.16;;;30.84;100.00
54308;BME280;40208;39.778;2.710;2023-07-20T10:36:31;101132.97;;;30.87;100.00
54308;BME280;40208;39.778;2.710;2023-07-20T10:39:25;101110.44;;;30.70;100.00
54308;BME280;40208;39.778;2.710;2023-07-20T10:42:12;101152.38;;;30.85;100.00
54308;BME280;40208;39.778;2.710;2023-07-20T10:44:57;101150.81;;;30.98;100.00
54308;BME280;40208;39.778;2.710;2023-07-20T10:47:45;101161.13;;;30.96;100.00
54308;BME280;40208;39.778;2.710;2023-07-20T10:50:30;101164.28;;;30.93;100.00
54308;BME280;40208;39.778;2.710;2023-07-20T10:53:18;101166.75;;;30.88;100.00
54308;BME280;40208;39.778;2.710;2023-07-20T10:56:12;101137.41;;;30.52;100.00
54308;BME280;40208;39.778;2.710;2023-07-20T10:58:59;101110.25;;;30.35;100.00
54308;BME280;40208;39.778;2.710;2023-07-20T11:01:44;101115.69;;;30.20;100.00
54308;BME280;40208;39.778;2.710;2023-07-20T11:04:47;101181.53;;;30.57;100.00
54308;BME280;40208;39.778;2.710;2023-07-20T11:07:37;101054.56;;;29.69;100.00
54308;BME280;40208;39.778;2.710;2023-07-20T11:10:23;101170.41;;;30.29;100.00
54308;BME280;40208;39.778;2.710;2023-07-20T11:13:21;101107.78;;;29.81;100.00
54308;BME280;40208;39.778;2.710;2023-07-20T11:16:07;101202.41;;;30.43;100.00
54308;BME280;40208;39.778;2.710;2023-07-20T11:18:52;101159.44;;;30.29;100.00
54308;BME280;40208;39.778;2.710;2023-07-20T11:21:38;101185.88;;;30.36;100.00
54308;BME280;40208;39.778;2.710;2023-07-20T11:24:23;101179.56;;;30.36;100.00
54308;BME280;40208;39.778;2.710;2023-07-20T11:27:08;101171.78;;;30.39;100.00
54308;BME280;40208;39.778;2.710;2023-07-20T11:29:53;101172.00;;;30.38;100.00
54308;BME280;40208;39.778;2.710;2023-07-20T11:32:47;101141.38;;;30.49;100.00
54308;BME280;40208;39.778;2.710;2023-07-20T11:35:41;100989.53;;;29.71;100.00
54308;BME280;40208;39.778;2.710;2023-07-20T11:38:26;101079.81;;;30.45;100.00
54308;BME280;40208;39.778;2.710;2023-07-20T11:41:11;100975.78;;;29.79;100.00
54308;BME280;40208;39.778;2.710;2023-07-20T11:43:56;101031.38;;;30.16;100.00
54308;BME280;40208;39.778;2.710;2023-07-20T11:46:42;101077.16;;;30.37;100.00
54308;BME280;40208;39.778;2.710;2023-07-20T11:49:28;101140.97;;;30.67;100.00
54308;BME280;40208;39.778;2.710;2023-07-20T11:52:16;101185.47;;;30.69;100.00
54308;BME280;40208;39.778;2.710;2023-07-20T11:55:02;101064.66;;;29.98;100.00
54308;BME280;40208;39.778;2.710;2023-07-20T11:58:04;101146.34;;;30.60;100.00
54308;BME280;40208;39.778;2.710;2023-07-20T12:00:49;101096.84;;;30.26;100.00
54308;BME280;40208;39.778;2.710;2023-07-20T12:03:34;101043.59;;;29.98;100.00
54308;BME280;40208;39.778;2.710;2023-07-20T12:06:23;101137.59;;;30.50;100.00
54308;BME280;40208;39.778;2.710;2023-07-20T12:09:14;101010.59;;;29.70;100.00
54308;BME280;40208;39.778;2.710;2023-07-20T12:12:09;101142.97;;;30.58;100.00
54308;BME280;40208;39.778;2.710;2023-07-20T12:15:14;101121.63;;;30.54;100.00
54308;BME280;40208;39.778;2.710;2023-07-20T12:18:01;100990.31;;;29.79;100.00
54308;BME280;40208;39.778;2.710;2023-07-20T12:20:46;101086.00;;;30.54;100.00
54308;BME280;40208;39.778;2.710;2023-07-20T12:23:38;100965.06;;;29.99;100.00
54308;BME280;40208;39.778;2.710;2023-07-20T12:26:23;101002.56;;;30.35;100.00
54308;BME280;40208;39.778;2.710;2023-07-20T12:29:09;101000.44;;;30.73;100.00
54308;BME280;40208;39.778;2.710;2023-07-20T12:31:54;100984.78;;;30.67;100.00
54308;BME280;40208;39.778;2.710;2023-07-20T12:34:39;100947.59;;;30.58;100.00
54308;BME280;40208;39.778;2.710;2023-07-20T12:37:24;100938.28;;;30.52;100.00
54308;BME280;40208;39.778;2.710;2023-07-20T12:40:09;100896.56;;;30.50;100.00
54308;BME280;40208;39.778;2.710;2023-07-20T12:42:55;100838.56;;;30.47;100.00
54308;BME280;40208;39.778;2.710;2023-07-20T12:45:40;100840.16;;;30.34;100.00
54308;BME280;40208;39.778;2.710;2023-07-20T12:48:25;100881.69;;;30.38;100.00
54308;BME280;40208;39.778;2.710;2023-07-20T12:51:11;100847.69;;;30.26;100.00
54308;BME280;40208;39.778;2.710;2023-07-20T12:53:56;100736.69;;;29.80;100.00
54308;BME280;40208;39.778;2.710;2023-07-20T12:56:41;100772.59;;;30.41;100.00
54308;BME280;40208;39.778;2.710;2023-07-20T12:59:25;100679.69;;;30.40;100.00
54308;BME280;40208;39.778;2.710;2023-07-20T13:02:10;100647.00;;;30.04;100.00
54308;BME280;40208;39.778;2.710;2023-07-20T13:04:55;100733.50;;;30.54;100.00
54308;BME280;40208;39.778;2.710;2023-07-20T13:07:39;100713.88;;;30.51;100.00
54308;BME280;40208;39.778;2.710;2023-07-20T13:10:24;100519.72;;;29.51;100.00
54308;BME280;40208;39.778;2.710;2023-07-20T13:13:09;100661.38;;;30.40;100.00
54308;BME280;40208;39.778;2.710;2023-07-20T13:15:55;100548.16;;;29.85;100.00
54308;BME280;40208;39.778;2.710;2023-07-20T13:18:40;100647.94;;;30.52;100.00
54308;BME280;40208;39.778;2.710;2023-07-20T13:21:24;100644.59;;;30.57;100.00
54308;BME280;40208;39.778;2.710;2023-07-20T13:24:10;100664.19;;;30.60;100.00
54308;BME280;40208;39.778;2.710;2023-07-20T13:26:54;100569.59;;;30.23;100.00
54308;BME280;40208;39.778;2.710;2023-07-20T13:29:39;100658.59;;;30.82;100.00
54308;BME280;40208;39.778;2.710;2023-07-20T13:32:24;100677.47;;;31.05;100.00
54308;BME280;40208;39.778;2.710;2023-07-20T13:35:09;100694.38;;;31.22;100.00
54308;BME280;40208;39.778;2.710;2023-07-20T13:37:54;100703.03;;;31.32;100.00
54308;BME280;40208;39.778;2.710;2023-07-20T13:40:39;100707.69;;;31.38;100.00
54308;BME280;40208;39.778;2.710;2023-07-20T13:43:24;100713.88;;;31.47;100.00
54308;BME280;40208;39.778;2.710;2023-07-20T13:46:09;100710.72;;;31.50;100.00
54308;BME280;40208;39.778;2.710;2023-07-20T13:48:54;100656.59;;;31.17;100.00
54308;BME280;40208;39.778;2.710;2023-07-20T13:51:39;100729.31;;;31.61;100.00
54308;BME280;40208;39.778;2.710;2023-07-20T13:54:25;100705.66;;;31.47;100.00
54308;BME280;40208;39.778;2.710;2023-07-20T13:57:10;100676.00;;;31.22;100.00
54308;BME280;40208;39.778;2.710;2023-07-20T13:59:55;100742.81;;;31.69;100.00
54308;BME280;40208;39.778;2.710;2023-07-20T14:02:39;100691.84;;;31.27;100.00
54308;BME280;40208;39.778;2.710;2023-07-20T14:05:25;100685.88;;;31.03;100.00
54308;BME280;40208;39.778;2.710;2023-07-20T14:08:10;100776.06;;;31.33;100.00
54308;BME280;40208;39.778;2.710;2023-07-20T14:10:55;100805.16;;;31.27;100.00
54308;BME280;40208;39.778;2.710;2023-07-20T14:13:39;100925.03;;;31.75;100.00
54308;BME280;40208;39.778;2.710;2023-07-20T14:16:24;100969.13;;;31.74;100.00
54308;BME280;40208;39.778;2.710;2023-07-20T14:19:09;100873.59;;;31.08;100.00
54308;BME280;40208;39.778;2.710;2023-07-20T14:21:54;100996.56;;;31.74;100.00